createdAt,value
2022-08-05T00:01:25.205Z,100245.33
2022-08-05T00:04:08.308Z,100243.59
2022-08-05T00:06:51.769Z,100237.31
2022-08-05T00:09:34.856Z,100237.41
2022-08-05T00:12:17.559Z,100238.77
2022-08-05T00:15:54.081Z,100234.45
2022-08-05T00:18:03.516Z,100234.69
2022-08-05T00:20:46.494Z,100231.13
2022-08-05T00:23:46.009Z,100228.55
2022-08-05T00:26:34.772Z,100227.30
2022-08-05T00:29:17.475Z,100229.10
2022-08-05T00:32:13.195Z,100225.02
2022-08-05T00:35:06.772Z,100224.38
2022-08-05T00:37:53.905Z,100221.04
2022-08-05T00:40:51.789Z,100221.39
2022-08-05T00:43:46.704Z,100216.33
2022-08-05T00:46:42.586Z,100220.70
2022-08-05T00:49:26.570Z,100215.63
2022-08-05T00:52:15.766Z,100217.73
2022-08-05T00:55:00.433Z,100215.26
2022-08-05T00:57:57.854Z,100213.66
2022-08-05T01:00:42.210Z,100209.70
2022-08-05T01:03:30.997Z,100210.64
2022-08-05T01:06:16.976Z,100205.98
2022-08-05T01:09:00.028Z,100201.25
2022-08-05T01:11:48.636Z,100198.82
2022-08-05T01:14:33.262Z,100196.90
2022-08-05T01:17:26.064Z,100198.60
2022-08-05T01:20:19.184Z,100196.73
2022-08-05T01:23:22.709Z,100189.88
2022-08-05T01:26:33.558Z,100189.35
2022-08-05T01:29:23.212Z,100184.20
2022-08-05T01:32:12.398Z,100182.98
2022-08-05T01:34:58.977Z,100181.42
2022-08-05T01:37:46.131Z,100180.16
2022-08-05T01:40:35.513Z,100178.13
2022-08-05T01:43:22.011Z,100178.27
2022-08-05T01:46:16.710Z,100177.79
2022-08-05T01:49:23.661Z,100173.66
2022-08-05T01:52:17.524Z,100172.71
2022-08-05T01:55:05.616Z,100171.92
2022-08-05T01:58:29.344Z,100170.79
2022-08-05T02:00:59.052Z,100165.21
2022-08-05T02:03:46.362Z,100168.04
2022-08-05T02:06:37.422Z,100167.84
2022-08-05T02:09:21.625Z,100163.62
2022-08-05T02:12:10.255Z,100166.70
2022-08-05T02:15:00.609Z,100169.56
2022-08-05T02:18:31.447Z,100161.81
2022-08-05T02:21:14.802Z,100164.84
2022-08-05T02:24:04.102Z,100162.38
2022-08-05T02:26:53.966Z,100162.75
2022-08-05T02:29:58.582Z,100157.41
2022-08-05T02:32:43.418Z,100157.77
2022-08-05T02:35:27.692Z,100152.90
2022-08-05T02:38:19.165Z,100151.44
2022-08-05T02:41:14.516Z,100151.30
2022-08-05T02:44:06.185Z,100150.36
2022-08-05T02:47:00.100Z,100147.85
2022-08-05T02:49:46.544Z,100145.98
2022-08-05T02:52:32.166Z,100146.33
2022-08-05T02:55:17.721Z,100148.63
2022-08-05T02:58:22.972Z,100149.27
2022-08-05T03:01:14.432Z,100148.17
2022-08-05T03:04:12.310Z,100143.27
2022-08-05T03:06:59.500Z,100143.27
2022-08-05T03:09:51.435Z,100144.05
2022-08-05T03:12:37.666Z,100139.09
2022-08-05T03:15:21.504Z,100136.27
2022-08-05T03:18:06.780Z,100134.43
2022-08-05T03:20:50.479Z,100132.55
2022-08-05T03:23:36.813Z,100133.30
2022-08-05T03:26:31.481Z,100130.99
2022-08-05T03:29:17.327Z,100125.85
2022-08-05T03:32:01.242Z,100125.10
2022-08-05T03:34:50.489Z,100127.48
2022-08-05T03:37:41.664Z,100121.91
2022-08-05T03:40:31.928Z,100125.48
2022-08-05T03:44:09.571Z,100118.96
2022-08-05T03:46:22.545Z,100124.27
2022-08-05T03:49:09.813Z,100124.97
2022-08-05T03:52:39.071Z,100123.13
2022-08-05T03:56:05.239Z,100127.81
2022-08-05T03:58:18.582Z,100127.24
2022-08-05T04:01:04.711Z,100131.53
2022-08-05T04:04:09.853Z,100128.40
2022-08-05T04:06:54.636Z,100125.31
2022-08-05T04:09:40.031Z,100124.29
2022-08-05T04:15:19.731Z,100121.63
2022-08-05T04:18:09.475Z,100122.23
2022-08-05T04:20:55.801Z,100119.12
2022-08-05T04:24:04.695Z,100113.69
2022-08-05T04:26:41.571Z,100113.08
2022-08-05T04:29:24.641Z,100114.42
2022-08-05T04:32:10.448Z,100114.95
2022-08-05T04:34:53.224Z,100114.09
2022-08-05T04:38:02.469Z,100114.51
2022-08-05T04:40:47.927Z,100113.25
2022-08-05T04:43:34.028Z,100109.63
2022-08-05T04:46:28.313Z,100110.59
2022-08-05T04:49:14.670Z,100115.95
2022-08-05T04:52:00.484Z,100117.98
2022-08-05T04:54:43.522Z,100118.48
2022-08-05T04:57:28.914Z,100117.86
2022-08-05T05:00:14.830Z,100113.52
2022-08-05T05:03:03.972Z,100119.16
2022-08-05T05:06:35.923Z,100122.53
2022-08-05T05:08:50.773Z,100121.65
2022-08-05T05:11:53.912Z,100126.27
2022-08-05T05:14:36.513Z,100124.21
2022-08-05T05:17:23.713Z,100127.74
2022-08-05T05:20:09.995Z,100126.36
2022-08-05T05:22:52.823Z,100116.97
2022-08-05T05:25:41.028Z,100121.30
2022-08-05T05:28:24.050Z,100112.93
2022-08-05T05:31:08.912Z,100109.86
2022-08-05T05:34:01.596Z,100111.36
2022-08-05T05:36:47.020Z,100112.08
2022-08-05T05:39:31.725Z,100110.50
2022-08-05T05:42:18.912Z,100109.45
2022-08-05T05:45:04.441Z,100109.92
2022-08-05T05:48:06.410Z,100114.50
2022-08-05T05:50:52.136Z,100115.77
2022-08-05T05:53:46.122Z,100112.63
2022-08-05T05:56:37.812Z,100110.10
2022-08-05T05:59:20.624Z,100115.39
2022-08-05T06:02:05.840Z,100114.36
2022-08-05T06:04:50.599Z,100115.97
2022-08-05T06:07:41.965Z,100115.67
2022-08-05T06:10:25.478Z,100116.92
2022-08-05T06:13:13.197Z,100115.91
2022-08-05T06:16:30.954Z,100111.98
2022-08-05T06:18:59.911Z,100116.80
2022-08-05T06:21:49.803Z,100122.15
2022-08-05T06:24:33.153Z,100116.57
2022-08-05T06:28:09.337Z,100116.70
2022-08-05T06:30:21.287Z,100112.23
2022-08-05T06:33:04.409Z,100110.95
2022-08-05T06:36:05.737Z,100108.35
2022-08-05T06:38:53.069Z,100108.52
2022-08-05T06:41:35.979Z,100106.14
2022-08-05T06:44:24.210Z,100107.45
2022-08-05T06:47:10.311Z,100107.42
2022-08-05T06:50:17.384Z,100105.80
2022-08-05T06:53:11.759Z,100105.95
2022-08-05T06:56:04.920Z,100105.17
2022-08-05T06:59:09.527Z,100103.84
2022-08-05T07:01:54.720Z,100105.67
2022-08-05T07:04:37.669Z,100104.90
2022-08-05T07:07:24.052Z,100101.70
2022-08-05T07:10:18.176Z,100095.64
2022-08-05T07:13:52.446Z,100091.65
2022-08-05T07:18:02.210Z,100098.38
2022-08-05T07:22:49.633Z,100092.99
2022-08-05T07:25:55.601Z,100094.30
2022-08-05T07:28:36.840Z,100089.52
2022-08-05T07:31:19.915Z,100087.39
2022-08-05T07:34:26.249Z,100085.29
2022-08-05T07:37:11.545Z,100088.45
2022-08-05T07:40:26.359Z,100089.38
2022-08-05T07:42:57.449Z,100090.31
2022-08-05T07:45:56.580Z,100090.03
2022-08-05T07:49:04.444Z,100093.84
2022-08-05T07:51:54.399Z,100089.13
2022-08-05T07:54:38.612Z,100086.29
2022-08-05T07:57:55.252Z,100085.45
2022-08-05T08:00:33.232Z,100087.45
2022-08-05T08:03:16.859Z,100090.13
2022-08-05T08:06:07.517Z,100089.77
2022-08-05T08:08:52.906Z,100091.03
2022-08-05T08:11:47.502Z,100084.83
2022-08-05T08:14:37.225Z,100086.60
2022-08-05T08:17:23.976Z,100087.77
2022-08-05T08:20:43.690Z,100082.17
2022-08-05T08:24:02.972Z,100076.29
2022-08-05T08:26:17.313Z,100075.77
2022-08-05T08:29:52.787Z,100076.61
2022-08-05T08:32:12.706Z,100074.71
2022-08-05T08:35:01.469Z,100074.77
2022-08-05T08:37:45.646Z,100077.42
2022-08-05T08:40:37.746Z,100075.11
2022-08-05T08:45:19.798Z,100076.41
2022-08-05T08:46:27.745Z,100071.98
2022-08-05T08:50:05.747Z,100073.21
2022-08-05T08:52:22.839Z,100077.81
2022-08-05T08:55:13.021Z,100079.92
2022-08-05T08:57:58.370Z,100078.46
2022-08-05T09:00:42.213Z,100076.90
2022-08-05T09:03:25.460Z,100075.73
2022-08-05T09:06:28.186Z,100070.38
2022-08-05T09:09:12.748Z,100067.83
2022-08-05T09:12:01.230Z,100072.24
2022-08-05T09:14:58.881Z,100066.38
2022-08-05T09:17:49.893Z,100061.39
2022-08-05T09:20:37.889Z,100059.16
2022-08-05T09:23:21.742Z,100053.86
2022-08-05T09:26:11.014Z,100058.08
2022-08-05T09:29:05.812Z,100061.73
2022-08-05T09:32:40.092Z,100058.59
2022-08-05T09:35:26.871Z,100058.30
2022-08-05T09:38:18.453Z,100060.84
2022-08-05T09:41:10.225Z,100058.34
2022-08-05T09:43:53.558Z,100046.66
2022-08-05T09:46:37.064Z,100046.58
2022-08-05T09:49:24.459Z,100047.65
2022-08-05T09:52:29.431Z,100046.33
2022-08-05T09:55:56.506Z,100047.17
2022-08-05T09:58:16.515Z,100051.48
2022-08-05T10:01:13.321Z,100050.44
2022-08-05T10:04:00.308Z,100049.05
2022-08-05T10:06:59.578Z,100047.39
2022-08-05T10:10:14.379Z,100042.44
2022-08-05T10:13:01.899Z,100041.69
2022-08-05T10:15:52.688Z,100040.88
2022-08-05T10:18:37.221Z,100043.04
2022-08-05T10:21:21.359Z,100046.03
2022-08-05T10:24:10.661Z,100040.58
2022-08-05T10:26:56.014Z,100036.85
2022-08-05T10:30:06.519Z,100031.93
2022-08-05T10:33:02.629Z,100024.27
2022-08-05T10:35:48.608Z,100021.77
2022-08-05T10:38:46.578Z,100028.05
2022-08-05T10:41:46.504Z,100021.14
2022-08-05T10:44:32.133Z,100016.97
2022-08-05T10:47:26.770Z,100006.80
2022-08-05T10:50:33.216Z,100011.83
2022-08-05T10:53:34.252Z,100014.00
2022-08-05T10:56:25.903Z,100014.80
2022-08-05T10:59:12.532Z,100014.24
2022-08-05T11:02:08.836Z,100015.40
2022-08-05T11:04:58.253Z,100013.52
2022-08-05T11:08:02.508Z,100006.17
2022-08-05T11:11:00.177Z,100009.98
2022-08-05T11:13:57.925Z,100006.46
2022-08-05T11:16:57.942Z,100007.97
2022-08-05T11:20:11.576Z,100004.14
2022-08-05T11:22:53.641Z,100000.81
2022-08-05T11:26:05.499Z,99996.17
2022-08-05T11:28:48.333Z,99990.00
2022-08-05T11:31:54.212Z,99992.86
2022-08-05T11:34:51.372Z,99994.23
2022-08-05T11:38:28.778Z,100003.67
2022-08-05T11:41:36.799Z,100002.92
2022-08-05T11:44:10.256Z,100007.04
2022-08-05T11:47:09.597Z,99995.15
2022-08-05T11:50:00.000Z,99995.67
2022-08-05T11:52:46.034Z,99993.80
2022-08-05T11:55:36.496Z,99994.71
2022-08-05T11:58:28.924Z,99994.63
2022-08-05T12:01:13.610Z,99991.16
2022-08-05T12:04:02.214Z,99990.70
2022-08-05T12:06:48.831Z,99990.58
2022-08-05T12:09:52.697Z,99987.19
2022-08-05T12:12:37.791Z,99993.55
2022-08-05T12:15:44.310Z,99984.06
2022-08-05T12:18:33.799Z,99982.19
2022-08-05T12:21:26.844Z,99977.65
2022-08-05T12:24:17.259Z,99974.22
2022-08-05T12:27:09.721Z,99974.63
2022-08-05T12:30:09.790Z,99976.17
2022-08-05T12:32:58.444Z,99968.07
2022-08-05T12:35:50.653Z,99971.66
2022-08-05T12:38:38.170Z,99972.89
2022-08-05T12:41:22.629Z,99969.01
2022-08-05T12:44:28.649Z,99962.47
2022-08-05T12:47:28.695Z,99962.67
2022-08-05T12:50:15.732Z,99957.71
2022-08-05T12:52:59.399Z,99956.04
2022-08-05T12:55:42.957Z,99957.98
2022-08-05T12:58:50.804Z,99955.45
2022-08-05T13:02:02.358Z,99945.60
2022-08-05T13:04:32.353Z,99948.02
2022-08-05T13:07:26.906Z,99949.77
2022-08-05T13:10:21.216Z,99942.52
2022-08-05T13:13:07.051Z,99940.59
2022-08-05T13:15:53.842Z,99940.19
2022-08-05T13:18:39.599Z,99935.73
2022-08-05T13:21:22.716Z,99936.30
2022-08-05T13:24:11.432Z,99937.43
2022-08-05T13:26:56.136Z,99936.86
2022-08-05T13:30:31.566Z,99936.89
2022-08-05T13:32:50.383Z,99933.30
2022-08-05T13:35:47.428Z,99925.79
2022-08-05T13:38:36.306Z,99922.78
2022-08-05T13:41:36.110Z,99922.89
2022-08-05T13:44:21.187Z,99925.23
2022-08-05T13:47:08.707Z,99928.27
2022-08-05T13:49:53.080Z,99929.83
2022-08-05T13:52:36.508Z,99930.98
2022-08-05T13:55:41.150Z,99928.77
2022-08-05T13:58:30.183Z,99926.63
2022-08-05T14:01:16.115Z,99922.50
2022-08-05T14:04:19.266Z,99921.13
2022-08-05T14:07:26.361Z,99920.17
2022-08-05T14:10:08.377Z,99917.73
2022-08-05T14:12:54.533Z,99918.46
2022-08-05T14:16:05.084Z,99916.17
2022-08-05T14:18:40.573Z,99915.33
2022-08-05T14:22:07.011Z,99913.75
2022-08-05T14:24:26.530Z,99912.52
2022-08-05T14:27:18.112Z,99909.87
2022-08-05T14:30:01.608Z,99906.88
2022-08-05T14:32:47.207Z,99905.70
2022-08-05T14:35:49.921Z,99905.80
2022-08-05T14:38:36.260Z,99904.42
2022-08-05T14:41:19.992Z,99902.08
2022-08-05T14:44:09.675Z,99902.59
2022-08-05T14:46:52.938Z,99900.54
2022-08-05T14:49:59.677Z,99901.58
2022-08-05T14:52:52.309Z,99903.17
2022-08-05T14:55:39.437Z,99903.73
2022-08-05T14:58:23.012Z,99901.21
2022-08-05T15:01:06.801Z,99893.98
2022-08-05T15:03:59.113Z,99891.75
2022-08-05T15:06:49.332Z,99883.04
2022-08-05T15:09:51.448Z,99880.86
2022-08-05T15:12:57.709Z,99877.40
2022-08-05T15:15:54.018Z,99878.08
2022-08-05T15:18:38.977Z,99874.21
2022-08-05T15:21:21.750Z,99878.20
2022-08-05T15:24:08.438Z,99883.30
2022-08-05T15:26:52.394Z,99880.23
2022-08-05T15:29:42.016Z,99884.45
2022-08-05T15:32:27.385Z,99879.63
2022-08-05T15:35:12.702Z,99875.52
2022-08-05T15:38:32.636Z,99870.07
2022-08-05T15:41:22.962Z,99872.98
2022-08-05T15:44:04.314Z,99867.88
2022-08-05T15:46:47.552Z,99863.24
2022-08-05T15:49:48.105Z,99860.73
2022-08-05T15:52:54.351Z,99861.14
2022-08-05T15:56:02.857Z,99854.14
2022-08-05T15:58:43.931Z,99851.91
2022-08-05T16:01:29.433Z,99853.59
2022-08-05T16:04:25.655Z,99852.52
2022-08-05T16:07:10.844Z,99851.61
2022-08-05T16:09:54.169Z,99855.33
2022-08-05T16:12:37.332Z,99854.45
2022-08-05T16:15:21.171Z,99855.38
2022-08-05T16:18:08.876Z,99851.26
2022-08-05T16:20:52.371Z,99854.02
2022-08-05T16:23:54.669Z,99847.49
2022-08-05T16:26:51.782Z,99848.75
2022-08-05T16:29:37.065Z,99849.57
2022-08-05T16:32:28.722Z,99848.95
2022-08-05T16:35:12.405Z,99846.84
2022-08-05T16:38:15.487Z,99851.58
2022-08-05T16:41:02.629Z,99854.52
2022-08-05T16:44:05.981Z,99857.38
2022-08-05T16:46:55.630Z,99862.30
2022-08-05T16:49:39.089Z,99855.71
2022-08-05T16:52:24.150Z,99850.27
2022-08-05T16:55:15.604Z,99845.89
2022-08-05T16:58:01.308Z,99851.45
2022-08-05T17:00:44.305Z,99849.16
2022-08-05T17:03:31.062Z,99847.77
2022-08-05T17:06:16.451Z,99851.27
2022-08-05T17:08:59.800Z,99849.84
2022-08-05T17:11:48.828Z,99856.81
2022-08-05T17:14:37.192Z,99856.54
2022-08-05T17:17:22.570Z,99855.83
2022-08-05T17:20:09.030Z,99857.98
2022-08-05T17:22:57.661Z,99861.89
2022-08-05T17:25:41.911Z,99867.23
2022-08-05T17:28:25.306Z,99869.14
2022-08-05T17:31:24.496Z,99868.83
2022-08-05T17:34:17.948Z,99873.43
2022-08-05T17:37:01.124Z,99875.23
2022-08-05T17:39:43.948Z,99873.97
2022-08-05T17:42:32.451Z,99874.17
2022-08-05T17:45:20.329Z,99882.09
2022-08-05T17:48:07.502Z,99885.56
2022-08-05T17:50:51.587Z,99887.80
2022-08-05T17:53:35.944Z,99886.98
2022-08-05T17:56:19.719Z,99886.86
2022-08-05T17:59:06.318Z,99888.67
2022-08-05T18:01:50.360Z,99892.90
2022-08-05T18:04:33.720Z,99891.82
2022-08-05T18:07:42.153Z,99896.54
2022-08-05T18:10:25.519Z,99902.14
2022-08-05T18:13:12.412Z,99907.17
2022-08-05T18:15:55.371Z,99913.91
2022-08-05T18:18:39.629Z,99932.09
2022-08-05T18:21:22.898Z,99932.96
2022-08-05T18:24:10.338Z,99941.30
2022-08-05T18:26:55.528Z,99943.00
2022-08-05T18:29:43.345Z,99955.08
2022-08-05T18:32:33.704Z,99959.80
2022-08-05T18:35:19.192Z,99956.48
2022-08-05T18:38:26.421Z,99963.59
2022-08-05T18:41:55.881Z,99979.11
2022-08-05T18:44:13.681Z,99982.64
2022-08-05T18:47:16.285Z,99987.79
2022-08-05T18:50:17.304Z,99994.52
2022-08-05T18:53:01.149Z,99999.41
2022-08-05T18:55:49.430Z,100000.29
2022-08-05T18:58:33.585Z,100001.77
2022-08-05T19:01:19.023Z,100009.53
2022-08-05T19:04:23.945Z,100015.17
2022-08-05T19:07:07.223Z,100019.11
2022-08-05T19:09:51.480Z,100020.80
2022-08-05T19:12:38.246Z,100020.31
2022-08-05T19:15:57.819Z,100030.30
2022-08-05T19:18:24.177Z,100033.70
2022-08-05T19:21:07.182Z,100040.98
2022-08-05T19:24:07.431Z,100044.99
2022-08-05T19:26:54.496Z,100059.05
2022-08-05T19:29:38.681Z,100070.20
2022-08-05T19:32:21.870Z,100073.02
2022-08-05T19:35:11.161Z,100070.95
2022-08-05T19:38:06.509Z,100076.67
2022-08-05T19:40:51.228Z,100085.94
2022-08-05T19:44:06.019Z,100086.63
2022-08-05T19:46:39.453Z,100086.73
2022-08-05T19:49:22.873Z,100092.90
2022-08-05T19:52:19.820Z,100096.85
2022-08-05T19:56:11.783Z,100107.12
2022-08-05T19:58:28.843Z,100102.31
2022-08-05T20:01:13.267Z,100104.64
2022-08-05T20:03:56.411Z,100101.67
2022-08-05T20:06:46.448Z,100105.98
2022-08-05T20:09:30.013Z,100101.87
2022-08-05T20:12:33.008Z,100107.61
2022-08-05T20:15:23.275Z,100106.95
2022-08-05T20:18:33.350Z,100114.48
2022-08-05T20:21:18.155Z,100127.48
2022-08-05T20:24:01.974Z,100130.55
2022-08-05T20:26:44.959Z,100136.17
2022-08-05T20:29:28.196Z,100139.06
2022-08-05T20:32:13.989Z,100140.42
2022-08-05T20:34:57.579Z,100141.86
2022-08-05T20:38:05.832Z,100150.40
2022-08-05T20:40:47.003Z,100151.77
2022-08-05T20:43:58.590Z,100152.12
2022-08-05T20:46:36.377Z,100161.55
2022-08-05T20:49:24.423Z,100162.66
2022-08-05T20:52:10.646Z,100167.77
2022-08-05T20:54:59.615Z,100172.75
2022-08-05T20:57:44.855Z,100181.90
2022-08-05T21:00:49.533Z,100182.63
2022-08-05T21:03:34.385Z,100179.81
2022-08-05T21:06:28.292Z,100181.59
2022-08-05T21:09:11.460Z,100184.57
2022-08-05T21:12:10.093Z,100188.10
2022-08-05T21:14:54.238Z,100202.13
2022-08-05T21:17:37.931Z,100210.58
2022-08-05T21:20:32.937Z,100212.73
2022-08-05T21:23:16.671Z,100226.86
2022-08-05T21:25:59.630Z,100243.24
2022-08-05T21:28:47.878Z,100267.98
2022-08-05T21:31:41.313Z,100293.45
2022-08-05T21:34:26.851Z,100305.34
2022-08-05T21:37:11.217Z,100305.99
2022-08-05T21:39:58.292Z,100308.99
2022-08-05T21:42:43.980Z,100307.03
2022-08-05T21:45:51.623Z,100307.11
2022-08-05T21:48:34.681Z,100295.85
2022-08-05T21:52:15.228Z,100289.44
2022-08-05T21:54:27.676Z,100276.25
2022-08-05T21:57:30.719Z,100254.52
2022-08-05T22:00:15.693Z,100248.09
2022-08-05T22:02:59.208Z,100254.34
2022-08-05T22:05:48.130Z,100262.95
2022-08-05T22:08:32.128Z,100263.98
2022-08-05T22:11:15.919Z,100263.29
2022-08-05T22:14:32.486Z,100269.04
2022-08-05T22:17:05.302Z,100266.74
2022-08-05T22:20:01.418Z,100264.59
2022-08-05T22:23:16.560Z,100265.94
2022-08-05T22:26:18.217Z,100269.66
2022-08-05T22:29:04.164Z,100279.80
2022-08-05T22:31:46.926Z,100292.26
2022-08-05T22:34:38.258Z,100300.20
2022-08-05T22:37:23.478Z,100295.27
2022-08-05T22:40:27.126Z,100289.39
2022-08-05T22:43:13.702Z,100296.28
2022-08-05T22:45:56.745Z,100312.05
2022-08-05T22:48:42.141Z,100318.33
2022-08-05T22:51:29.980Z,100324.52
2022-08-05T22:54:29.383Z,100330.48
2022-08-05T22:57:12.275Z,100332.04
2022-08-05T22:59:58.099Z,100334.85
2022-08-05T23:02:46.899Z,100337.95
2022-08-05T23:05:30.227Z,100336.32
2022-08-05T23:08:18.760Z,100334.89
2022-08-05T23:11:01.459Z,100335.92
2022-08-05T23:13:44.259Z,100331.55
2022-08-05T23:16:49.403Z,100331.48
2022-08-05T23:19:38.516Z,100323.23
2022-08-05T23:22:29.701Z,100330.41
2022-08-05T23:25:13.866Z,100332.14
2022-08-05T23:28:01.039Z,100329.45
2022-08-05T23:30:53.568Z,100344.65
2022-08-05T23:34:05.283Z,100344.31
2022-08-05T23:36:44.515Z,100348.98
2022-08-05T23:39:44.624Z,100347.73
2022-08-05T23:42:31.074Z,100354.17
2022-08-05T23:45:16.097Z,100359.42
2022-08-05T23:47:59.463Z,100369.15
2022-08-05T23:50:46.056Z,100381.14
2022-08-05T23:53:46.535Z,100379.75
2022-08-05T23:56:29.869Z,100376.01
2022-08-05T23:59:13.324Z,100384.99
